Terminal Aerodrome Forecast
Issued by NWS New Orleans/Baton Rouge, LA

Home | Current Version | Previous Version | Text Only | Print | Product List | Glossary On
Versions: 1 2 3 4 5 6 7 8 9 10 11 12 13 14 15 16 17 18 19 20 21 22 23 24 25 26 27 28 29 30
012
FTUS44 KLIX 030521
TAFNEW
TAF
KNEW 030521Z 0306/0406 07017KT P6SM -RA SCT060 OVC090
      TEMPO 0309/0312 4SM -RA OVC040
     FM031200 08018G27KT P6SM VCSH OVC080
     FM040000 09017G25KT P6SM -SHRA OVC030
     FM040400 10017KT P6SM -SHRA OVC015=

USA.gov is the U.S. government's official web portal to all federal, state and local government web resources and services.